Time;durP1;ratioP1;P1;durP2;ratioP2;P2;SDS_P1;SDS_P2;PMS_P1;PMS_P2;Temp;Humidity;BMP_temperature;BMP_pressure;BME280_temperature;BME280_humidity;BME280_pressure;Samples;Min_cycle;Max_cycle;Signal;HPM_P1;HPM_P2
2021/05/07 00:01:05;;;;;;;12.10;7.10;;;;;;;;;;4948553;28;20098;-53
2021/05/07 00:03:31;;;;;;;15.82;8.90;;;;;;;;;;4947901;28;20081;-55
2021/05/07 00:05:57;;;;;;;12.52;6.20;;;;;;;;;;4947845;28;20019;-53
2021/05/07 00:08:27;;;;;;;17.67;8.75;;;;;;;;;;4947762;28;20055;-54
2021/05/07 00:10:53;;;;;;;29.98;17.73;;;;;;;;;;4948143;28;20082;-54
2021/05/07 00:13:20;;;;;;;52.28;30.17;;;;;;;;;;4940176;28;20023;-54
2021/05/07 00:15:46;;;;;;;8.48;5.25;;;;;;;;;;4947943;28;20031;-54
2021/05/07 00:18:12;;;;;;;14.05;8.20;;;;;;;;;;4947902;28;20027;-55
2021/05/07 00:20:38;;;;;;;9.63;5.90;;;;;;;;;;4947938;28;20142;-53
2021/05/07 00:23:04;;;;;;;26.15;14.75;;;;;;;;;;4947886;28;20097;-54
2021/05/07 00:25:30;;;;;;;13.23;6.82;;;;;;;;;;4947910;28;20027;-55
2021/05/07 00:28:00;;;;;;;19.45;10.95;;;;;;;;;;4947410;28;20054;-52
2021/05/07 00:30:26;;;;;;;55.60;32.67;;;;;;;;;;4947666;28;20030;-54
2021/05/07 00:32:52;;;;;;;29.70;15.68;;;;;;;;;;4947636;28;20054;-55
2021/05/07 00:35:18;;;;;;;14.80;8.43;;;;;;;;;;4947359;28;20042;-55
2021/05/07 00:37:44;;;;;;;11.48;7.10;;;;;;;;;;4947635;28;20074;-54
2021/05/07 00:40:11;;;;;;;22.00;12.25;;;;;;;;;;4947506;28;20114;-55
2021/05/07 00:42:37;;;;;;;32.88;19.10;;;;;;;;;;4947366;28;20057;-52
2021/05/07 00:45:05;;;;;;;13.00;6.65;;;;;;;;;;4947403;28;20398;-55
2021/05/07 00:47:32;;;;;;;14.30;6.90;;;;;;;;;;4947016;28;20027;-54
2021/05/07 00:49:58;;;;;;;17.63;8.15;;;;;;;;;;4948510;28;20031;-55
2021/05/07 00:52:24;;;;;;;15.18;7.32;;;;;;;;;;4947440;28;20518;-54
2021/05/07 00:54:50;;;;;;;16.38;8.48;;;;;;;;;;4948236;28;20040;-55
2021/05/07 00:57:17;;;;;;;14.15;6.88;;;;;;;;;;4946043;28;20027;-55
2021/05/07 00:59:43;;;;;;;23.42;13.18;;;;;;;;;;4947028;28;20039;-54
2021/05/07 01:02:09;;;;;;;13.95;7.63;;;;;;;;;;4947023;28;20031;-54
2021/05/07 01:04:39;;;;;;;13.75;8.57;;;;;;;;;;4946998;28;20027;-55
2021/05/07 01:07:06;;;;;;;15.82;8.20;;;;;;;;;;4951158;28;20538;-54
2021/05/07 01:09:34;;;;;;;12.30;7.05;;;;;;;;;;4957846;28;20047;-55
2021/05/07 01:12:00;;;;;;;13.10;5.93;;;;;;;;;;4957737;29;20020;-56
2021/05/07 01:14:26;;;;;;;14.27;8.02;;;;;;;;;;4957529;29;20119;-54
2021/05/07 01:16:52;;;;;;;27.45;16.42;;;;;;;;;;4957252;28;20031;-55
2021/05/07 01:19:18;;;;;;;12.30;5.63;;;;;;;;;;4957376;28;20090;-54
2021/05/07 01:21:45;;;;;;;16.65;10.13;;;;;;;;;;4957377;29;20043;-53
2021/05/07 01:24:14;;;;;;;17.08;8.23;;;;;;;;;;4957412;29;20098;-56
2021/05/07 01:26:43;;;;;;;9.82;6.85;;;;;;;;;;4957509;29;20111;-54
2021/05/07 01:29:10;;;;;;;14.77;8.93;;;;;;;;;;4957305;29;20082;-55
2021/05/07 01:31:36;;;;;;;17.08;10.43;;;;;;;;;;4957077;28;20365;-55
2021/05/07 01:34:02;;;;;;;14.32;8.30;;;;;;;;;;4956041;29;20093;-56
2021/05/07 01:36:28;;;;;;;16.52;8.90;;;;;;;;;;4957066;29;20506;-55
2021/05/07 01:38:55;;;;;;;21.77;12.15;;;;;;;;;;4957062;29;20031;-55
2021/05/07 01:41:21;;;;;;;19.92;11.30;;;;;;;;;;4956888;28;20067;-54
2021/05/07 01:43:47;;;;;;;15.93;8.93;;;;;;;;;;4956896;29;20601;-53
2021/05/07 01:46:13;;;;;;;48.70;26.77;;;;;;;;;;4956842;28;21649;-55
2021/05/07 01:48:39;;;;;;;17.67;10.32;;;;;;;;;;4957116;29;20090;-54
2021/05/07 01:51:07;;;;;;;15.95;8.98;;;;;;;;;;4956968;29;20035;-54
2021/05/07 01:53:33;;;;;;;22.65;13.45;;;;;;;;;;4956691;29;20070;-54
2021/05/07 01:55:59;;;;;;;10.30;5.60;;;;;;;;;;4956701;29;20042;-54
2021/05/07 01:58:26;;;;;;;18.90;10.68;;;;;;;;;;4956585;29;20445;-54
2021/05/07 02:00:52;;;;;;;12.02;4.72;;;;;;;;;;4956557;29;20495;-53
2021/05/07 02:03:18;;;;;;;12.00;6.40;;;;;;;;;;4956646;29;20035;-55
2021/05/07 02:05:44;;;;;;;11.68;7.22;;;;;;;;;;4956695;29;20028;-54
2021/05/07 02:08:11;;;;;;;12.75;8.10;;;;;;;;;;4956340;28;20047;-55
2021/05/07 02:10:37;;;;;;;16.85;8.85;;;;;;;;;;4956663;29;20038;-55
2021/05/07 02:13:05;;;;;;;7.95;5.13;;;;;;;;;;4956582;28;20023;-55
2021/05/07 02:15:31;;;;;;;9.73;5.15;;;;;;;;;;4956872;29;20464;-55
2021/05/07 02:17:58;;;;;;;11.40;6.38;;;;;;;;;;4956264;28;20035;-54
2021/05/07 02:20:28;;;;;;;7.47;4.65;;;;;;;;;;4956385;29;20130;-55
2021/05/07 02:22:55;;;;;;;8.65;5.28;;;;;;;;;;4956509;29;20019;-54
2021/05/07 02:25:22;;;;;;;9.43;5.65;;;;;;;;;;4956626;29;20539;-55
2021/05/07 02:27:49;;;;;;;10.60;4.20;;;;;;;;;;4956316;29;20082;-54
2021/05/07 02:30:17;;;;;;;12.18;6.90;;;;;;;;;;4956290;28;20038;-54
2021/05/07 02:32:43;;;;;;;10.52;4.32;;;;;;;;;;4956287;29;20023;-55
2021/05/07 02:35:10;;;;;;;8.13;4.28;;;;;;;;;;4956287;29;20023;-55
2021/05/07 02:37:37;;;;;;;8.93;4.43;;;;;;;;;;4956365;29;20023;-55
2021/05/07 02:40:04;;;;;;;6.38;4.07;;;;;;;;;;4956291;28;20039;-55
2021/05/07 02:42:30;;;;;;;7.50;4.40;;;;;;;;;;4956154;29;20062;-55
2021/05/07 02:44:56;;;;;;;9.70;4.43;;;;;;;;;;4956005;29;20027;-55
2021/05/07 02:47:22;;;;;;;5.78;3.95;;;;;;;;;;4955923;29;20548;-54
2021/05/07 02:49:49;;;;;;;7.93;4.63;;;;;;;;;;4955979;28;20043;-54
2021/05/07 02:52:17;;;;;;;14.20;5.72;;;;;;;;;;4955924;28;20029;-55
2021/05/07 02:54:43;;;;;;;9.40;4.63;;;;;;;;;;4956230;29;20114;-55
2021/05/07 02:57:09;;;;;;;10.05;4.30;;;;;;;;;;4955745;28;20085;-55
2021/05/07 02:59:36;;;;;;;7.70;4.22;;;;;;;;;;4955479;29;20023;-55
2021/05/07 03:02:02;;;;;;;7.30;3.70;;;;;;;;;;4955609;29;20082;-55
2021/05/07 03:04:28;;;;;;;6.70;3.90;;;;;;;;;;4955935;29;20031;-54
2021/05/07 03:06:54;;;;;;;7.50;4.10;;;;;;;;;;4955595;29;20047;-54
2021/05/07 03:09:20;;;;;;;9.90;4.65;;;;;;;;;;4955474;28;20472;-54
2021/05/07 03:11:46;;;;;;;8.07;4.10;;;;;;;;;;4955416;29;20065;-54
2021/05/07 03:14:13;;;;;;;11.00;4.20;;;;;;;;;;4955670;28;20023;-54
2021/05/07 03:16:40;;;;;;;6.55;4.32;;;;;;;;;;4955335;29;20035;-54
2021/05/07 03:19:06;;;;;;;10.90;3.42;;;;;;;;;;4954987;28;20078;-54
2021/05/07 03:21:32;;;;;;;7.70;3.42;;;;;;;;;;4955527;29;20090;-54
2021/05/07 03:23:58;;;;;;;8.50;4.05;;;;;;;;;;4955423;29;20019;-54
2021/05/07 03:26:25;;;;;;;8.02;3.33;;;;;;;;;;4955512;28;20035;-54
2021/05/07 03:28:51;;;;;;;13.27;4.40;;;;;;;;;;4955596;29;20034;-54
2021/05/07 03:31:17;;;;;;;8.40;3.63;;;;;;;;;;4955357;28;20468;-54
2021/05/07 03:33:45;;;;;;;11.93;3.75;;;;;;;;;;4955388;29;20039;-54
2021/05/07 03:36:11;;;;;;;9.82;4.22;;;;;;;;;;4955422;29;20102;-54
2021/05/07 03:38:37;;;;;;;8.63;3.95;;;;;;;;;;4955364;29;20034;-54
2021/05/07 03:41:03;;;;;;;9.88;4.68;;;;;;;;;;4955406;29;20031;-55
2021/05/07 03:43:29;;;;;;;14.10;6.28;;;;;;;;;;4953903;28;20031;-54
2021/05/07 03:45:57;;;;;;;12.73;4.80;;;;;;;;;;4954976;28;20034;-54
2021/05/07 03:48:24;;;;;;;15.50;4.85;;;;;;;;;;4955513;29;20503;-54
2021/05/07 03:50:54;;;;;;;12.02;6.15;;;;;;;;;;4955284;29;20028;-53
2021/05/07 03:53:21;;;;;;;12.55;5.82;;;;;;;;;;4955288;29;20023;-54
2021/05/07 03:55:47;;;;;;;10.20;4.53;;;;;;;;;;4953878;29;20451;-54
2021/05/07 03:58:13;;;;;;;11.18;4.53;;;;;;;;;;4955214;29;20019;-54
2021/05/07 04:00:40;;;;;;;11.55;4.45;;;;;;;;;;4954800;29;20427;-55
2021/05/07 04:03:06;;;;;;;10.50;4.20;;;;;;;;;;4955238;29;20016;-55
2021/05/07 04:05:32;;;;;;;6.63;3.20;;;;;;;;;;4954973;29;20077;-55
2021/05/07 04:10:39;;;;;;;7.43;3.40;;;;;;;;;;4954741;29;20027;-55
2021/05/07 04:15:31;;;;;;;5.68;3.60;;;;;;;;;;4954682;28;20035;-55
2021/05/07 04:17:57;;;;;;;6.43;3.47;;;;;;;;;;4954645;29;20390;-55
2021/05/07 04:20:23;;;;;;;6.75;3.25;;;;;;;;;;4954845;28;20046;-56
2021/05/07 04:22:49;;;;;;;9.73;3.05;;;;;;;;;;4954990;29;20031;-53
2021/05/07 04:25:15;;;;;;;6.93;3.13;;;;;;;;;;4954949;29;20034;-55
2021/05/07 04:27:41;;;;;;;5.93;2.75;;;;;;;;;;4955055;29;20054;-54
2021/05/07 04:30:08;;;;;;;8.90;3.30;;;;;;;;;;4955220;28;20023;-54
2021/05/07 04:32:35;;;;;;;7.70;3.10;;;;;;;;;;4958281;29;20027;-55
2021/05/07 04:35:01;;;;;;;9.10;3.45;;;;;;;;;;4958453;29;20051;-55
2021/05/07 04:37:27;;;;;;;9.85;4.05;;;;;;;;;;4958321;29;20435;-54
2021/05/07 04:39:53;;;;;;;6.25;3.83;;;;;;;;;;4958317;29;20031;-55
2021/05/07 04:42:19;;;;;;;12.70;3.80;;;;;;;;;;4958118;29;20098;-54
2021/05/07 04:44:47;;;;;;;9.05;3.40;;;;;;;;;;4958046;29;20035;-54
2021/05/07 04:47:13;;;;;;;8.02;4.35;;;;;;;;;;4958180;28;20381;-55
2021/05/07 04:49:39;;;;;;;6.60;3.28;;;;;;;;;;4958200;29;20110;-55
2021/05/07 04:52:07;;;;;;;9.27;4.03;;;;;;;;;;4958157;29;20023;-55
2021/05/07 04:54:34;;;;;;;7.53;3.20;;;;;;;;;;4958298;29;20059;-54
2021/05/07 04:57:00;;;;;;;7.22;3.70;;;;;;;;;;4958187;28;20031;-53
2021/05/07 04:59:27;;;;;;;7.90;3.58;;;;;;;;;;4958016;28;20029;-54
2021/05/07 05:01:53;;;;;;;5.82;3.95;;;;;;;;;;4957626;28;20472;-55
2021/05/07 05:04:21;;;;;;;9.98;3.95;;;;;;;;;;4957833;29;20086;-54
2021/05/07 05:06:47;;;;;;;9.23;4.05;;;;;;;;;;4957775;29;20122;-53
2021/05/07 05:09:13;;;;;;;10.25;4.03;;;;;;;;;;4957905;29;20038;-53
2021/05/07 05:11:39;;;;;;;10.15;4.53;;;;;;;;;;4957711;29;20089;-54
2021/05/07 05:14:05;;;;;;;13.60;4.25;;;;;;;;;;4957504;29;20023;-54
2021/05/07 05:16:32;;;;;;;8.73;4.10;;;;;;;;;;4957499;29;20384;-54
2021/05/07 05:18:58;;;;;;;16.83;4.88;;;;;;;;;;4957459;28;20082;-54
2021/05/07 05:21:26;;;;;;;10.32;3.80;;;;;;;;;;4957322;29;20034;-55
2021/05/07 05:23:52;;;;;;;12.80;3.53;;;;;;;;;;4957515;29;20030;-53
2021/05/07 05:26:18;;;;;;;6.25;3.90;;;;;;;;;;4957378;29;20062;-54
2021/05/07 05:28:44;;;;;;;10.18;4.32;;;;;;;;;;4957293;29;20053;-54
2021/05/07 05:31:10;;;;;;;8.25;3.47;;;;;;;;;;4957300;29;20026;-54
2021/05/07 05:33:36;;;;;;;20.52;5.13;;;;;;;;;;4957634;28;20083;-55
2021/05/07 05:36:03;;;;;;;12.63;4.75;;;;;;;;;;4957176;29;20055;-56
2021/05/07 05:38:29;;;;;;;14.50;4.45;;;;;;;;;;4957111;29;20379;-55
2021/05/07 05:40:55;;;;;;;14.80;4.45;;;;;;;;;;4957075;29;20130;-54
2021/05/07 05:43:22;;;;;;;13.75;5.85;;;;;;;;;;4956431;28;20023;-54
2021/05/07 05:45:48;;;;;;;11.55;5.05;;;;;;;;;;4956821;29;20555;-54
2021/05/07 05:48:15;;;;;;;10.25;5.05;;;;;;;;;;4956669;29;20028;-54
2021/05/07 05:50:42;;;;;;;12.40;5.32;;;;;;;;;;4956894;29;20031;-55
2021/05/07 05:53:08;;;;;;;17.35;6.65;;;;;;;;;;4957075;29;20067;-54
2021/05/07 05:55:36;;;;;;;15.80;5.95;;;;;;;;;;4956968;29;20384;-55
2021/05/07 05:58:02;;;;;;;14.55;5.68;;;;;;;;;;4957138;29;20051;-55
2021/05/07 06:00:30;;;;;;;14.52;4.80;;;;;;;;;;4956569;29;20490;-55
2021/05/07 06:02:56;;;;;;;7.13;4.32;;;;;;;;;;4956862;29;20102;-55
2021/05/07 06:05:22;;;;;;;12.57;4.68;;;;;;;;;;4956947;28;20027;-55
2021/05/07 06:07:48;;;;;;;8.70;4.90;;;;;;;;;;4956702;29;20047;-54
2021/05/07 06:10:15;;;;;;;13.18;4.78;;;;;;;;;;4956478;29;20110;-52
2021/05/07 06:12:43;;;;;;;7.30;4.57;;;;;;;;;;4956565;29;20047;-55
2021/05/07 06:15:10;;;;;;;10.18;5.00;;;;;;;;;;4956296;28;20029;-55
2021/05/07 06:17:36;;;;;;;13.40;5.88;;;;;;;;;;4956312;29;20035;-55
2021/05/07 06:20:04;;;;;;;9.35;5.55;;;;;;;;;;4956364;29;20058;-55
2021/05/07 06:22:31;;;;;;;13.48;5.22;;;;;;;;;;4956356;29;20023;-56
2021/05/07 06:24:57;;;;;;;12.60;4.93;;;;;;;;;;4956337;29;20118;-55
2021/05/07 06:27:23;;;;;;;8.15;4.43;;;;;;;;;;4956381;29;20057;-55
2021/05/07 06:29:49;;;;;;;12.05;4.25;;;;;;;;;;4956305;28;20027;-56
2021/05/07 06:32:16;;;;;;;16.63;5.53;;;;;;;;;;4956416;29;20389;-56
2021/05/07 06:34:42;;;;;;;10.07;3.80;;;;;;;;;;4956447;29;20033;-57
2021/05/07 06:37:08;;;;;;;11.20;2.97;;;;;;;;;;4956263;29;20023;-55
2021/05/07 06:39:34;;;;;;;13.30;3.20;;;;;;;;;;4956118;29;20027;-56
2021/05/07 06:42:01;;;;;;;8.73;3.17;;;;;;;;;;4956173;29;20035;-55
2021/05/07 06:44:27;;;;;;;9.32;4.28;;;;;;;;;;4955783;29;20031;-55
2021/05/07 06:46:54;;;;;;;4.75;2.80;;;;;;;;;;4956074;29;20407;-56
2021/05/07 06:49:23;;;;;;;8.45;2.88;;;;;;;;;;4956125;29;20134;-53
2021/05/07 06:51:49;;;;;;;7.43;2.90;;;;;;;;;;4955892;29;20111;-55
2021/05/07 06:54:16;;;;;;;6.95;3.05;;;;;;;;;;4938261;29;20030;-54
2021/05/07 06:56:42;;;;;;;4.93;2.60;;;;;;;;;;4956071;28;20023;-55
2021/05/07 06:59:10;;;;;;;10.13;3.05;;;;;;;;;;4955718;28;20054;-55
2021/05/07 07:01:37;;;;;;;8.95;2.72;;;;;;;;;;4955601;29;20065;-56
2021/05/07 07:04:04;;;;;;;11.73;4.97;;;;;;;;;;4955736;29;20051;-56
2021/05/07 07:06:30;;;;;;;16.52;9.32;;;;;;;;;;4955601;29;20113;-56
2021/05/07 07:08:56;;;;;;;13.55;7.38;;;;;;;;;;4955542;29;20400;-55
2021/05/07 07:11:22;;;;;;;9.70;4.47;;;;;;;;;;4955521;29;20029;-56
2021/05/07 07:13:49;;;;;;;9.23;4.18;;;;;;;;;;4955336;29;20472;-55
2021/05/07 07:16:15;;;;;;;21.25;13.63;;;;;;;;;;4955218;29;20103;-53
2021/05/07 07:18:41;;;;;;;21.95;12.05;;;;;;;;;;4955207;29;20118;-55
2021/05/07 07:21:10;;;;;;;19.05;8.82;;;;;;;;;;4955205;29;20539;-54
2021/05/07 07:23:36;;;;;;;37.15;22.98;;;;;;;;;;4955335;29;20028;-55
2021/05/07 07:26:05;;;;;;;77.70;49.15;;;;;;;;;;4955290;29;20086;-55
2021/05/07 07:28:31;;;;;;;19.98;10.93;;;;;;;;;;4955649;29;20028;-55
2021/05/07 07:30:57;;;;;;;16.48;9.45;;;;;;;;;;4955337;29;20082;-56
2021/05/07 07:33:23;;;;;;;50.17;12.90;;;;;;;;;;4955108;29;20102;-54
2021/05/07 07:35:50;;;;;;;6.15;3.13;;;;;;;;;;4955305;28;20055;-54
2021/05/07 07:38:16;;;;;;;8.02;3.22;;;;;;;;;;4955097;29;20424;-54
2021/05/07 07:40:42;;;;;;;58.88;39.22;;;;;;;;;;4955003;29;20373;-52
2021/05/07 07:43:08;;;;;;;68.75;41.67;;;;;;;;;;4955033;29;20043;-54
2021/05/07 07:45:36;;;;;;;167.88;62.03;;;;;;;;;;4954973;28;20059;-53
2021/05/07 07:48:03;;;;;;;140.07;68.40;;;;;;;;;;4955078;28;20020;-55
2021/05/07 07:50:29;;;;;;;103.65;66.32;;;;;;;;;;4955060;29;20036;-67
2021/05/07 07:52:55;;;;;;;27.77;14.13;;;;;;;;;;4955309;29;20059;-61
2021/05/07 07:55:21;;;;;;;42.75;21.17;;;;;;;;;;4955160;28;20098;-62
2021/05/07 07:57:47;;;;;;;178.65;121.75;;;;;;;;;;4955307;29;20042;-59
2021/05/07 08:00:14;;;;;;;142.40;83.93;;;;;;;;;;4954944;28;20042;-57
2021/05/07 08:02:44;;;;;;;185.05;104.55;;;;;;;;;;4954762;29;20027;-56
2021/05/07 08:05:13;;;;;;;375.77;253.20;;;;;;;;;;4954075;28;20054;-52
2021/05/07 08:07:40;;;;;;;57.83;29.10;;;;;;;;;;4958847;29;20297;-50
2021/05/07 08:10:06;;;;;;;113.25;53.17;;;;;;;;;;4958750;28;20019;-53
2021/05/07 08:12:32;;;;;;;64.35;33.97;;;;;;;;;;4964043;28;20030;-49
2021/05/07 08:14:58;;;;;;;67.47;28.27;;;;;;;;;;4977571;28;20031;-53
2021/05/07 08:17:25;;;;;;;41.10;18.80;;;;;;;;;;4977699;28;20384;-53
2021/05/07 08:19:51;;;;;;;11.63;6.63;;;;;;;;;;4960402;28;20035;-55
2021/05/07 08:22:17;;;;;;;18.58;7.50;;;;;;;;;;4977588;28;20092;-59
2021/05/07 08:24:46;;;;;;;20.10;5.57;;;;;;;;;;4977840;28;20026;-61
2021/05/07 08:27:12;;;;;;;30.45;8.30;;;;;;;;;;4977516;28;20039;-59
2021/05/07 08:29:39;;;;;;;18.50;5.30;;;;;;;;;;4977637;28;20034;-60
2021/05/07 08:32:05;;;;;;;6.03;2.63;;;;;;;;;;4977432;28;20023;-61
2021/05/07 08:34:31;;;;;;;10.73;2.78;;;;;;;;;;4977542;28;20040;-62
2021/05/07 08:36:57;;;;;;;44.75;9.18;;;;;;;;;;4972707;28;20033;-61
2021/05/07 08:39:26;;;;;;;27.77;6.10;;;;;;;;;;4966731;28;20436;-63
2021/05/07 08:41:52;;;;;;;11.60;2.47;;;;;;;;;;4965363;28;20035;-62
2021/05/07 08:44:20;;;;;;;9.43;2.35;;;;;;;;;;4966650;28;20078;-61
2021/05/07 08:46:46;;;;;;;12.60;3.58;;;;;;;;;;4966977;28;20517;-62
2021/05/07 08:49:15;;;;;;;10.50;4.15;;;;;;;;;;4965187;28;20028;-62
2021/05/07 08:51:41;;;;;;;15.15;3.00;;;;;;;;;;4966175;28;20027;-63
2021/05/07 08:54:08;;;;;;;10.68;3.53;;;;;;;;;;4967186;28;20476;-60
2021/05/07 08:56:35;;;;;;;8.93;3.60;;;;;;;;;;4965343;28;20031;-62
2021/05/07 08:59:01;;;;;;;11.02;2.95;;;;;;;;;;4966169;28;20023;-63
2021/05/07 09:01:38;;;;;;;6.93;3.75;;;;;;;;;;4966683;28;20047;-61
2021/05/07 09:04:08;;;;;;;6.68;2.95;;;;;;;;;;4966472;28;20173;-60
2021/05/07 09:06:39;;;;;;;13.30;4.50;;;;;;;;;;4964949;28;20039;-62
2021/05/07 09:09:15;;;;;;;10.68;3.63;;;;;;;;;;4965403;28;20030;-63
2021/05/07 09:11:44;;;;;;;12.30;3.63;;;;;;;;;;4966174;28;20384;-62
2021/05/07 09:14:10;;;;;;;14.10;3.80;;;;;;;;;;4966686;28;20025;-63
2021/05/07 09:16:36;;;;;;;12.88;3.97;;;;;;;;;;4964257;28;20037;-62
2021/05/07 09:19:03;;;;;;;11.68;4.10;;;;;;;;;;4965126;28;20026;-62
2021/05/07 09:21:29;;;;;;;12.65;4.13;;;;;;;;;;4966554;28;20065;-61
2021/05/07 09:23:55;;;;;;;12.57;4.05;;;;;;;;;;4964713;28;20046;-63
2021/05/07 09:26:21;;;;;;;20.73;4.45;;;;;;;;;;4947970;28;20034;-63
2021/05/07 09:28:51;;;;;;;29.75;4.45;;;;;;;;;;4968342;28;20054;-62
2021/05/07 09:31:18;;;;;;;18.15;3.78;;;;;;;;;;4965208;28;20042;-63
2021/05/07 09:33:46;;;;;;;15.60;3.33;;;;;;;;;;4965810;28;20019;-63
2021/05/07 09:36:22;;;;;;;10.98;4.00;;;;;;;;;;4949046;28;20113;-62
2021/05/07 09:38:48;;;;;;;17.50;4.63;;;;;;;;;;4967117;28;20023;-63
2021/05/07 09:41:14;;;;;;;10.40;3.25;;;;;;;;;;4968928;28;20038;-62
2021/05/07 09:43:40;;;;;;;13.80;3.58;;;;;;;;;;4976485;28;20070;-62
2021/05/07 09:46:06;;;;;;;8.85;3.78;;;;;;;;;;4976203;28;20394;-62
2021/05/07 09:48:32;;;;;;;14.02;3.92;;;;;;;;;;4976350;28;20023;-63
2021/05/07 09:51:03;;;;;;;9.48;3.78;;;;;;;;;;4976144;28;20106;-61
2021/05/07 09:53:29;;;;;;;;;;;;;;;;;;4959161;28;20386;-62
2021/05/07 09:55:59;;;;;;;11.18;3.72;;;;;;;;;;4976292;28;19989;-63
2021/05/07 09:58:25;;;;;;;8.15;4.50;;;;;;;;;;4976319;28;20019;-59
2021/05/07 10:00:52;;;;;;;11.80;5.00;;;;;;;;;;4975889;28;20065;-62
2021/05/07 10:03:18;;;;;;;10.13;5.15;;;;;;;;;;4976100;28;20023;-63
2021/05/07 10:05:44;;;;;;;11.25;5.90;;;;;;;;;;4975966;28;20022;-57
2021/05/07 10:08:10;;;;;;;13.18;6.00;;;;;;;;;;4975678;28;20046;-62
2021/05/07 10:10:43;;;;;;;14.02;7.13;;;;;;;;;;4975972;28;20042;-62
2021/05/07 10:13:14;;;;;;;16.58;7.15;;;;;;;;;;4975817;28;20026;-63
2021/05/07 10:15:41;;;;;;;13.68;7.03;;;;;;;;;;4975533;28;20050;-61
2021/05/07 10:18:12;;;;;;;17.17;7.32;;;;;;;;;;4975292;28;20047;-65
2021/05/07 10:20:39;;;;;;;20.17;8.98;;;;;;;;;;4975783;28;20571;-62
2021/05/07 10:23:19;;;;;;;12.23;7.55;;;;;;;;;;4975461;28;20031;-63
2021/05/07 10:25:57;;;;;;;15.27;8.63;;;;;;;;;;4975833;28;20029;-61
2021/05/07 10:28:23;;;;;;;13.73;8.10;;;;;;;;;;4975454;28;20027;-62
2021/05/07 10:30:49;;;;;;;15.95;8.02;;;;;;;;;;4975586;28;20117;-61
2021/05/07 10:33:18;;;;;;;14.70;7.70;;;;;;;;;;4975213;28;20106;-60
2021/05/07 10:35:47;;;;;;;27.80;14.30;;;;;;;;;;4975376;28;20050;-56
2021/05/07 10:38:18;;;;;;;31.52;12.57;;;;;;;;;;4975165;28;20074;-51
2021/05/07 10:40:45;;;;;;;30.95;13.30;;;;;;;;;;4975075;28;20027;-58
2021/05/07 10:43:12;;;;;;;93.57;49.30;;;;;;;;;;4975344;28;20041;-52
2021/05/07 10:45:50;;;;;;;47.03;20.75;;;;;;;;;;4975119;28;20034;-51
2021/05/07 10:48:16;;;;;;;34.70;18.08;;;;;;;;;;4974798;28;20046;-52
2021/05/07 10:50:43;;;;;;;67.72;30.70;;;;;;;;;;4975347;28;20023;-52
2021/05/07 10:53:09;;;;;;;13.23;5.90;;;;;;;;;;4975112;28;20531;-57
2021/05/07 10:55:35;;;;;;;17.45;5.60;;;;;;;;;;4974870;28;20022;-57
2021/05/07 10:58:02;;;;;;;11.65;5.68;;;;;;;;;;4975088;28;20030;-57
2021/05/07 11:00:40;;;;;;;13.32;5.32;;;;;;;;;;4974645;28;20035;-56
2021/05/07 11:03:17;;;;;;;26.30;18.08;;;;;;;;;;4974799;28;20034;-60
2021/05/07 11:05:50;;;;;;;30.80;14.52;;;;;;;;;;4974688;28;20023;-58
2021/05/07 11:08:16;;;;;;;85.32;51.05;;;;;;;;;;4974667;28;20078;-57
2021/05/07 11:10:43;;;;;;;25.38;11.77;;;;;;;;;;4974646;28;20026;-59
2021/05/07 11:13:10;;;;;;;57.85;23.38;;;;;;;;;;4974652;28;20102;-58
2021/05/07 11:15:37;;;;;;;36.63;20.20;;;;;;;;;;4957188;28;20031;-59
2021/05/07 11:18:05;;;;;;;18.25;10.30;;;;;;;;;;4974412;28;20027;-59
2021/05/07 11:20:35;;;;;;;13.25;6.22;;;;;;;;;;4974589;28;20057;-58
2021/05/07 11:23:02;;;;;;;14.20;5.85;;;;;;;;;;4974345;28;20035;-58
2021/05/07 11:25:35;;;;;;;9.13;4.97;;;;;;;;;;4974409;28;20026;-58
2021/05/07 11:28:11;;;;;;;16.23;5.65;;;;;;;;;;4974615;28;20031;-56
2021/05/07 11:30:51;;;;;;;11.50;4.90;;;;;;;;;;4974431;28;20121;-58
2021/05/07 11:33:18;;;;;;;13.27;4.85;;;;;;;;;;4974399;28;20038;-57
2021/05/07 11:35:44;;;;;;;7.25;4.10;;;;;;;;;;4974424;28;20018;-58
2021/05/07 11:38:10;;;;;;;5.57;3.53;;;;;;;;;;4974206;28;20027;-58
2021/05/07 11:40:37;;;;;;;7.55;3.55;;;;;;;;;;4977075;28;20030;-57
2021/05/07 11:43:09;;;;;;;6.20;3.20;;;;;;;;;;4980741;28;20033;-56
2021/05/07 11:45:35;;;;;;;29.20;10.23;;;;;;;;;;4980560;28;20023;-57
2021/05/07 11:48:09;;;;;;;47.08;21.17;;;;;;;;;;4980620;28;20062;-58
2021/05/07 11:50:35;;;;;;;17.17;8.57;;;;;;;;;;4980719;28;20083;-59
2021/05/07 11:53:01;;;;;;;9.73;3.40;;;;;;;;;;4980288;28;20383;-63
2021/05/07 11:55:32;;;;;;;10.27;2.92;;;;;;;;;;4980525;28;20019;-60
2021/05/07 11:57:58;;;;;;;9.48;2.65;;;;;;;;;;4966709;28;20771;-60
2021/05/07 12:00:24;;;;;;;7.75;3.22;;;;;;;;;;4950594;28;20023;-62
2021/05/07 12:03:10;;;;;;;24.17;13.02;;;;;;;;;;4951463;28;20102;-59
2021/05/07 12:05:39;;;;;;;33.90;18.48;;;;;;;;;;4950420;28;20587;-56
2021/05/07 12:08:05;;;;;;;21.20;11.35;;;;;;;;;;4949818;28;20083;-54
2021/05/07 12:10:32;;;;;;;38.67;22.55;;;;;;;;;;4951527;28;20089;-55
2021/05/07 12:12:59;;;;;;;17.30;7.75;;;;;;;;;;4950980;28;20094;-55
2021/05/07 12:15:31;;;;;;;17.10;8.82;;;;;;;;;;4950436;28;20319;-56
2021/05/07 12:17:57;;;;;;;66.78;43.08;;;;;;;;;;4933734;28;20523;-55
2021/05/07 12:20:24;;;;;;;17.67;11.23;;;;;;;;;;4951732;28;20027;-68
2021/05/07 12:22:52;;;;;;;13.93;9.45;;;;;;;;;;4951554;28;20812;-57
2021/05/07 12:25:23;;;;;;;14.60;7.15;;;;;;;;;;4952205;28;20055;-58
2021/05/07 12:27:49;;;;;;;18.83;8.23;;;;;;;;;;4951284;28;20500;-55
2021/05/07 12:30:15;;;;;;;12.45;7.50;;;;;;;;;;4950894;28;20106;-55
2021/05/07 12:32:42;;;;;;;42.80;25.00;;;;;;;;;;4950411;28;20315;-55
2021/05/07 12:35:08;;;;;;;22.17;12.95;;;;;;;;;;4950136;28;20027;-56
2021/05/07 12:37:38;;;;;;;17.85;10.10;;;;;;;;;;4950555;28;20023;-56
2021/05/07 12:40:04;;;;;;;21.85;12.82;;;;;;;;;;4954972;28;20042;-56
2021/05/07 12:42:30;;;;;;;42.72;28.38;;;;;;;;;;4953992;28;20093;-56
2021/05/07 12:44:57;;;;;;;31.00;18.00;;;;;;;;;;4955388;28;20899;-56
2021/05/07 12:47:23;;;;;;;18.85;12.55;;;;;;;;;;4954824;28;20098;-55
2021/05/07 12:49:49;;;;;;;31.40;17.40;;;;;;;;;;4953481;28;20479;-54
2021/05/07 12:52:15;;;;;;;56.72;32.28;;;;;;;;;;4955056;28;20031;-55
2021/05/07 12:54:43;;;;;;;58.17;31.15;;;;;;;;;;4954671;28;20498;-54
2021/05/07 12:57:09;;;;;;;44.90;22.20;;;;;;;;;;4952875;28;20068;-55
2021/05/07 12:59:35;;;;;;;39.33;19.90;;;;;;;;;;4952488;28;20510;-55
2021/05/07 13:02:01;;;;;;;34.70;15.38;;;;;;;;;;4951139;28;20407;-55
2021/05/07 13:04:27;;;;;;;33.67;20.20;;;;;;;;;;4948167;28;20109;-55
2021/05/07 13:06:53;;;;;;;20.42;13.27;;;;;;;;;;4946810;28;20118;-55
2021/05/07 13:09:19;;;;;;;16.63;8.88;;;;;;;;;;4946978;28;20031;-56
2021/05/07 13:11:46;;;;;;;41.88;25.92;;;;;;;;;;4947606;28;20023;-59
2021/05/07 13:14:14;;;;;;;17.33;10.10;;;;;;;;;;4946770;28;20016;-55
2021/05/07 13:16:40;;;;;;;28.33;17.30;;;;;;;;;;4933024;28;20501;-55
2021/05/07 13:19:06;;;;;;;13.85;7.53;;;;;;;;;;4951500;28;20646;-57
2021/05/07 13:21:32;;;;;;;59.30;27.33;;;;;;;;;;4949723;28;20031;-55
2021/05/07 13:23:58;;;;;;;76.18;40.13;;;;;;;;;;4969836;28;20030;-56
2021/05/07 13:26:25;;;;;;;39.15;19.95;;;;;;;;;;4996170;28;20033;-57
2021/05/07 13:28:56;;;;;;;27.88;14.45;;;;;;;;;;4996254;28;20023;-58
2021/05/07 13:31:22;;;;;;;24.20;13.05;;;;;;;;;;4995976;28;20030;-57
2021/05/07 13:33:48;;;;;;;21.63;11.45;;;;;;;;;;4996064;28;20026;-58
2021/05/07 13:36:14;;;;;;;19.38;10.75;;;;;;;;;;4996055;28;20363;-57
2021/05/07 13:38:41;;;;;;;23.10;11.75;;;;;;;;;;4996004;28;20101;-57
2021/05/07 13:41:07;;;;;;;22.15;11.50;;;;;;;;;;4996028;28;20030;-57
2021/05/07 13:43:37;;;;;;;17.02;10.02;;;;;;;;;;4995754;28;20061;-56
2021/05/07 13:46:03;;;;;;;11.98;7.55;;;;;;;;;;4995975;28;20057;-58
2021/05/07 13:48:29;;;;;;;16.48;9.75;;;;;;;;;;4995740;28;20573;-58
2021/05/07 13:50:56;;;;;;;14.75;8.35;;;;;;;;;;4995573;28;20038;-56
2021/05/07 13:53:22;;;;;;;19.67;8.48;;;;;;;;;;4995634;28;20026;-56
2021/05/07 13:55:48;;;;;;;22.92;11.52;;;;;;;;;;4995617;28;20031;-55
2021/05/07 13:58:14;;;;;;;26.00;14.07;;;;;;;;;;4995603;28;20387;-55
2021/05/07 14:00:40;;;;;;;32.15;18.17;;;;;;;;;;4995556;28;20046;-55
2021/05/07 14:03:07;;;;;;;20.13;11.18;;;;;;;;;;4994959;28;20041;-54
2021/05/07 14:05:33;;;;;;;18.33;10.73;;;;;;;;;;4995358;28;20058;-55
2021/05/07 14:07:59;;;;;;;21.42;10.00;;;;;;;;;;4995174;28;20133;-55
2021/05/07 14:10:25;;;;;;;17.67;10.20;;;;;;;;;;4978798;28;20449;-57
2021/05/07 14:12:52;;;;;;;14.73;9.55;;;;;;;;;;4946907;28;20089;-57
2021/05/07 14:15:18;;;;;;;12.43;7.85;;;;;;;;;;4945462;28;20035;-57
2021/05/07 14:17:45;;;;;;;27.58;17.08;;;;;;;;;;4945311;28;20030;-56
2021/05/07 14:20:11;;;;;;;13.55;8.30;;;;;;;;;;4945472;28;20024;-56
2021/05/07 14:22:39;;;;;;;19.40;9.52;;;;;;;;;;4945382;28;20331;-56
2021/05/07 14:25:05;;;;;;;16.48;7.50;;;;;;;;;;4945498;28;20039;-55
2021/05/07 14:27:31;;;;;;;13.93;7.78;;;;;;;;;;4945416;28;20038;-55
2021/05/07 14:29:59;;;;;;;11.27;5.47;;;;;;;;;;4946022;28;20519;-56
2021/05/07 14:32:26;;;;;;;12.18;6.97;;;;;;;;;;4945009;28;20031;-56